sensor_id;sensor_type;location;lat;lon;timestamp;P1;durP1;ratioP1;P2;durP2;ratioP2
59014;SDS011;44799;53.382;14.666;2022-08-25T18:22:05;10.52;;;5.22;;
59014;SDS011;44799;53.382;14.666;2022-08-25T18:24:32;8.90;;;4.38;;
59014;SDS011;44799;53.382;14.666;2022-08-25T18:26:59;8.43;;;3.85;;
59014;SDS011;44799;53.382;14.666;2022-08-25T18:29:25;12.70;;;3.90;;
59014;SDS011;44799;53.382;14.666;2022-08-25T18:31:54;12.00;;;4.65;;
59014;SDS011;44799;53.382;14.666;2022-08-25T18:34:20;8.82;;;4.70;;
59014;SDS011;44799;53.382;14.666;2022-08-25T18:36:48;9.07;;;4.50;;
59014;SDS011;44799;53.382;14.666;2022-08-25T18:39:14;10.05;;;4.00;;
59014;SDS011;44799;53.382;14.666;2022-08-25T18:41:59;9.27;;;4.68;;
59014;SDS011;44799;53.382;14.666;2022-08-25T18:44:26;13.20;;;5.78;;
59014;SDS011;44799;53.382;14.666;2022-08-25T18:46:53;4.80;;;3.80;;
59014;SDS011;44799;53.382;14.666;2022-08-25T18:49:19;5.55;;;3.58;;
59014;SDS011;44799;53.382;14.666;2022-08-25T18:51:45;7.88;;;4.47;;
59014;SDS011;44799;53.382;14.666;2022-08-25T18:54:13;7.70;;;4.18;;
59014;SDS011;44799;53.382;14.666;2022-08-25T18:56:43;6.75;;;3.63;;
59014;SDS011;44799;53.382;14.666;2022-08-25T18:59:08;6.70;;;3.30;;
59014;SDS011;44799;53.382;14.666;2022-08-25T19:01:34;5.50;;;3.72;;
59014;SDS011;44799;53.382;14.666;2022-08-25T19:04:00;7.63;;;3.72;;
59014;SDS011;44799;53.382;14.666;2022-08-25T19:06:27;7.65;;;3.97;;
59014;SDS011;44799;53.382;14.666;2022-08-25T19:08:53;6.15;;;4.03;;
59014;SDS011;44799;53.382;14.666;2022-08-25T19:11:19;9.27;;;4.93;;
59014;SDS011;44799;53.382;14.666;2022-08-25T19:13:46;6.07;;;4.32;;
59014;SDS011;44799;53.382;14.666;2022-08-25T19:16:29;8.65;;;4.03;;
59014;SDS011;44799;53.382;14.666;2022-08-25T19:18:58;8.02;;;4.38;;
59014;SDS011;44799;53.382;14.666;2022-08-25T19:21:24;12.32;;;4.18;;
59014;SDS011;44799;53.382;14.666;2022-08-25T19:23:50;8.55;;;4.55;;
59014;SDS011;44799;53.382;14.666;2022-08-25T19:26:17;8.25;;;4.82;;
59014;SDS011;44799;53.382;14.666;2022-08-25T19:28:44;7.28;;;4.60;;
59014;SDS011;44799;53.382;14.666;2022-08-25T19:31:12;9.43;;;5.18;;
59014;SDS011;44799;53.382;14.666;2022-08-25T19:33:37;8.55;;;4.70;;
59014;SDS011;44799;53.382;14.666;2022-08-25T19:36:04;10.82;;;5.55;;
59014;SDS011;44799;53.382;14.666;2022-08-25T19:38:31;10.10;;;5.20;;
59014;SDS011;44799;53.382;14.666;2022-08-25T19:40:57;11.68;;;4.47;;
59014;SDS011;44799;53.382;14.666;2022-08-25T19:43:23;8.35;;;4.40;;
59014;SDS011;44799;53.382;14.666;2022-08-25T19:45:50;9.43;;;5.43;;
59014;SDS011;44799;53.382;14.666;2022-08-25T19:48:16;10.18;;;4.43;;
59014;SDS011;44799;53.382;14.666;2022-08-25T19:50:42;8.32;;;4.28;;
59014;SDS011;44799;53.382;14.666;2022-08-25T19:53:09;8.15;;;4.93;;
59014;SDS011;44799;53.382;14.666;2022-08-25T19:55:35;9.48;;;4.35;;
59014;SDS011;44799;53.382;14.666;2022-08-25T19:58:00;5.75;;;4.20;;
59014;SDS011;44799;53.382;14.666;2022-08-25T20:00:28;6.53;;;4.53;;
59014;SDS011;44799;53.382;14.666;2022-08-25T20:02:56;6.72;;;3.95;;
59014;SDS011;44799;53.382;14.666;2022-08-25T20:05:24;14.30;;;4.80;;
59014;SDS011;44799;53.382;14.666;2022-08-25T20:07:52;8.90;;;4.38;;
59014;SDS011;44799;53.382;14.666;2022-08-25T20:10:20;6.80;;;4.05;;
59014;SDS011;44799;53.382;14.666;2022-08-25T20:12:49;10.30;;;5.15;;
59014;SDS011;44799;53.382;14.666;2022-08-25T20:15:15;5.85;;;4.70;;
59014;SDS011;44799;53.382;14.666;2022-08-25T20:17:42;8.90;;;5.32;;
59014;SDS011;44799;53.382;14.666;2022-08-25T20:20:11;10.18;;;4.93;;
59014;SDS011;44799;53.382;14.666;2022-08-25T20:22:40;8.20;;;4.38;;
59014;SDS011;44799;53.382;14.666;2022-08-25T20:25:08;7.28;;;4.82;;
59014;SDS011;44799;53.382;14.666;2022-08-25T20:27:38;10.05;;;5.00;;
59014;SDS011;44799;53.382;14.666;2022-08-25T20:30:07;8.38;;;4.88;;
59014;SDS011;44799;53.382;14.666;2022-08-25T20:32:40;9.57;;;5.20;;
59014;SDS011;44799;53.382;14.666;2022-08-25T20:35:07;9.45;;;5.32;;
59014;SDS011;44799;53.382;14.666;2022-08-25T20:37:35;9.75;;;4.93;;
59014;SDS011;44799;53.382;14.666;2022-08-25T20:40:02;8.38;;;5.57;;
59014;SDS011;44799;53.382;14.666;2022-08-25T20:42:28;9.77;;;5.70;;
59014;SDS011;44799;53.382;14.666;2022-08-25T20:44:54;10.10;;;5.32;;
59014;SDS011;44799;53.382;14.666;2022-08-25T20:47:20;11.20;;;5.50;;
59014;SDS011;44799;53.382;14.666;2022-08-25T20:49:46;10.43;;;5.75;;
59014;SDS011;44799;53.382;14.666;2022-08-25T20:52:14;10.90;;;5.28;;
59014;SDS011;44799;53.382;14.666;2022-08-25T20:54:40;7.82;;;5.15;;
59014;SDS011;44799;53.382;14.666;2022-08-25T20:57:08;11.98;;;5.32;;
59014;SDS011;44799;53.382;14.666;2022-08-25T20:59:34;10.85;;;5.55;;
59014;SDS011;44799;53.382;14.666;2022-08-25T21:02:00;12.63;;;5.43;;
59014;SDS011;44799;53.382;14.666;2022-08-25T21:04:27;8.70;;;5.35;;
59014;SDS011;44799;53.382;14.666;2022-08-25T21:06:54;10.02;;;4.90;;
59014;SDS011;44799;53.382;14.666;2022-08-25T21:09:21;8.75;;;5.07;;
59014;SDS011;44799;53.382;14.666;2022-08-25T21:11:49;7.30;;;4.88;;
59014;SDS011;44799;53.382;14.666;2022-08-25T21:14:17;11.30;;;4.68;;
59014;SDS011;44799;53.382;14.666;2022-08-25T21:16:45;8.48;;;5.20;;
59014;SDS011;44799;53.382;14.666;2022-08-25T21:19:21;10.77;;;5.95;;
59014;SDS011;44799;53.382;14.666;2022-08-25T21:21:48;13.95;;;6.40;;
59014;SDS011;44799;53.382;14.666;2022-08-25T21:24:15;7.90;;;5.35;;
59014;SDS011;44799;53.382;14.666;2022-08-25T21:26:45;8.60;;;5.00;;
59014;SDS011;44799;53.382;14.666;2022-08-25T21:29:13;10.77;;;6.53;;
59014;SDS011;44799;53.382;14.666;2022-08-25T21:31:40;11.63;;;5.60;;
59014;SDS011;44799;53.382;14.666;2022-08-25T21:34:06;14.40;;;6.10;;
59014;SDS011;44799;53.382;14.666;2022-08-25T21:36:32;11.25;;;6.05;;
59014;SDS011;44799;53.382;14.666;2022-08-25T21:38:58;11.60;;;5.63;;
59014;SDS011;44799;53.382;14.666;2022-08-25T21:41:26;9.05;;;5.25;;
59014;SDS011;44799;53.382;14.666;2022-08-25T21:43:54;10.90;;;5.63;;
59014;SDS011;44799;53.382;14.666;2022-08-25T21:46:22;10.10;;;5.50;;
59014;SDS011;44799;53.382;14.666;2022-08-25T21:48:50;11.90;;;5.65;;
59014;SDS011;44799;53.382;14.666;2022-08-25T21:51:18;8.90;;;5.75;;
59014;SDS011;44799;53.382;14.666;2022-08-25T21:53:56;13.60;;;7.07;;
59014;SDS011;44799;53.382;14.666;2022-08-25T21:56:35;8.50;;;5.20;;
59014;SDS011;44799;53.382;14.666;2022-08-25T21:59:07;12.57;;;5.38;;
59014;SDS011;44799;53.382;14.666;2022-08-25T22:01:36;7.95;;;5.05;;
59014;SDS011;44799;53.382;14.666;2022-08-25T22:04:02;12.07;;;6.07;;
59014;SDS011;44799;53.382;14.666;2022-08-25T22:06:29;11.13;;;5.07;;
59014;SDS011;44799;53.382;14.666;2022-08-25T22:08:55;8.75;;;5.82;;
59014;SDS011;44799;53.382;14.666;2022-08-25T22:11:21;10.15;;;4.88;;
59014;SDS011;44799;53.382;14.666;2022-08-25T22:13:48;12.25;;;5.47;;
59014;SDS011;44799;53.382;14.666;2022-08-25T22:16:15;9.73;;;6.22;;
59014;SDS011;44799;53.382;14.666;2022-08-25T22:18:44;8.63;;;5.43;;
59014;SDS011;44799;53.382;14.666;2022-08-25T22:21:11;8.13;;;6.63;;
59014;SDS011;44799;53.382;14.666;2022-08-25T22:23:37;8.75;;;5.70;;
59014;SDS011;44799;53.382;14.666;2022-08-25T22:26:03;13.48;;;6.03;;
59014;SDS011;44799;53.382;14.666;2022-08-25T22:28:29;12.88;;;5.18;;
59014;SDS011;44799;53.382;14.666;2022-08-25T22:30:55;9.52;;;6.03;;
59014;SDS011;44799;53.382;14.666;2022-08-25T22:33:26;9.95;;;5.10;;
59014;SDS011;44799;53.382;14.666;2022-08-25T22:35:52;12.55;;;5.82;;
59014;SDS011;44799;53.382;14.666;2022-08-25T22:38:18;9.35;;;5.88;;
59014;SDS011;44799;53.382;14.666;2022-08-25T22:40:43;10.38;;;6.30;;
59014;SDS011;44799;53.382;14.666;2022-08-25T22:43:10;12.70;;;6.72;;
59014;SDS011;44799;53.382;14.666;2022-08-25T22:45:36;8.38;;;5.65;;
59014;SDS011;44799;53.382;14.666;2022-08-25T22:48:02;13.90;;;5.80;;
59014;SDS011;44799;53.382;14.666;2022-08-25T22:50:29;8.32;;;5.70;;
59014;SDS011;44799;53.382;14.666;2022-08-25T22:52:57;7.55;;;5.38;;
59014;SDS011;44799;53.382;14.666;2022-08-25T22:55:23;13.60;;;6.03;;
59014;SDS011;44799;53.382;14.666;2022-08-25T22:57:49;14.55;;;5.60;;
59014;SDS011;44799;53.382;14.666;2022-08-25T23:00:15;8.57;;;6.22;;
59014;SDS011;44799;53.382;14.666;2022-08-25T23:02:41;10.48;;;6.40;;
59014;SDS011;44799;53.382;14.666;2022-08-25T23:05:08;8.65;;;5.20;;
59014;SDS011;44799;53.382;14.666;2022-08-25T23:07:35;9.70;;;5.72;;
59014;SDS011;44799;53.382;14.666;2022-08-25T23:10:03;9.30;;;6.00;;
59014;SDS011;44799;53.382;14.666;2022-08-25T23:12:30;8.35;;;4.97;;
59014;SDS011;44799;53.382;14.666;2022-08-25T23:14:56;11.52;;;6.00;;
59014;SDS011;44799;53.382;14.666;2022-08-25T23:17:22;9.63;;;5.63;;
59014;SDS011;44799;53.382;14.666;2022-08-25T23:19:48;15.27;;;6.18;;
59014;SDS011;44799;53.382;14.666;2022-08-25T23:22:13;9.00;;;5.75;;
59014;SDS011;44799;53.382;14.666;2022-08-25T23:24:46;11.18;;;5.80;;
59014;SDS011;44799;53.382;14.666;2022-08-25T23:27:16;10.25;;;6.30;;
59014;SDS011;44799;53.382;14.666;2022-08-25T23:29:45;12.23;;;6.65;;
59014;SDS011;44799;53.382;14.666;2022-08-25T23:32:13;9.52;;;6.07;;
59014;SDS011;44799;53.382;14.666;2022-08-25T23:34:41;7.30;;;5.70;;
59014;SDS011;44799;53.382;14.666;2022-08-25T23:37:09;12.55;;;6.15;;
59014;SDS011;44799;53.382;14.666;2022-08-25T23:39:35;7.35;;;5.10;;
59014;SDS011;44799;53.382;14.666;2022-08-25T23:42:01;12.23;;;5.68;;
59014;SDS011;44799;53.382;14.666;2022-08-25T23:44:27;10.00;;;5.93;;
59014;SDS011;44799;53.382;14.666;2022-08-25T23:46:53;9.05;;;5.97;;
59014;SDS011;44799;53.382;14.666;2022-08-25T23:49:21;9.43;;;5.15;;
59014;SDS011;44799;53.382;14.666;2022-08-25T23:51:48;8.25;;;5.72;;
59014;SDS011;44799;53.382;14.666;2022-08-25T23:54:15;10.02;;;5.70;;
59014;SDS011;44799;53.382;14.666;2022-08-25T23:56:42;9.57;;;5.50;;
59014;SDS011;44799;53.382;14.666;2022-08-25T23:59:08;9.02;;;5.35;;
